Time;durP1;ratioP1;P1;durP2;ratioP2;P2;SDS_P1;SDS_P2;PMS_P1;PMS_P2;Temp;Humidity;BMP_temperature;BMP_pressure;BME280_temperature;BME280_humidity;BME280_pressure;Samples;Min_cycle;Max_cycle;Signal;HPM_P1;HPM_P2
2022/06/04 00:02:11;;;;;;;;;;;17.50;99.90;;;;;;5086341;28;20258;-67
2022/06/04 00:04:39;;;;;;;;;;;17.50;99.90;;;;;;5085638;28;20120;-67
2022/06/04 00:07:05;;;;;;;;;;;17.40;99.90;;;;;;5086378;28;19959;-66
2022/06/04 00:09:33;;;;;;;;;;;17.30;99.90;;;;;;5086448;28;20169;-67
2022/06/04 00:17:29;;;;;;;;;;;17.30;99.90;;;;;;5085924;28;19943;-66
2022/06/04 00:19:57;;;;;;;;;;;17.30;99.90;;;;;;5086427;28;19928;-66
2022/06/04 00:22:23;;;;;;;;;;;17.30;99.90;;;;;;5086338;28;19964;-67
2022/06/04 00:24:50;;;;;;;;;;;17.30;99.90;;;;;;5086331;28;19958;-67
2022/06/04 00:27:18;;;;;;;;;;;17.30;99.90;;;;;;5086122;28;19928;-67
2022/06/04 00:29:45;;;;;;;;;;;17.30;99.90;;;;;;5086122;28;19963;-66
2022/06/04 00:32:12;;;;;;;;;;;17.30;99.90;;;;;;5086138;28;19956;-67
2022/06/04 00:34:38;;;;;;;;;;;17.20;99.90;;;;;;5085891;28;19963;-67
2022/06/04 00:37:06;;;;;;;;;;;17.20;99.90;;;;;;5085865;28;19951;-66
2022/06/04 00:39:33;;;;;;;;;;;17.20;99.90;;;;;;5084610;28;20258;-66
2022/06/04 00:42:02;;;;;;;;;;;17.20;99.90;;;;;;5086071;28;20112;-67
2022/06/04 00:44:47;;;;;;;;;;;17.20;99.90;;;;;;5086037;28;19995;-67
2022/06/04 00:47:15;;;;;;;;;;;17.20;99.90;;;;;;5085688;28;19920;-67
2022/06/04 00:49:42;;;;;;;;;;;17.10;99.90;;;;;;5085827;28;20123;-67
2022/06/04 00:52:11;;;;;;;;;;;17.10;99.90;;;;;;5085816;28;20175;-67
2022/06/04 00:54:38;;;;;;;;;;;17.10;99.90;;;;;;5085507;28;19920;-67
2022/06/04 00:57:18;;;;;;;;;;;17.00;99.90;;;;;;5085504;28;19995;-66
2022/06/04 00:59:46;;;;;;;;;;;17.00;99.90;;;;;;5085214;28;19952;-67
2022/06/04 01:02:20;;;;;;;;;;;16.90;99.90;;;;;;5085286;28;19963;-67
2022/06/04 01:04:50;;;;;;;;;;;16.80;99.90;;;;;;5085671;28;19958;-67
2022/06/04 01:07:22;;;;;;;;;;;16.80;99.90;;;;;;5085194;28;19921;-67
2022/06/04 01:09:55;;;;;;;;;;;16.70;99.90;;;;;;5085123;28;19959;-66
2022/06/04 01:12:31;;;;;;;;;;;16.70;99.90;;;;;;5085440;28;20162;-67
2022/06/04 01:15:07;;;;;;;;;;;16.70;99.90;;;;;;5085137;28;19921;-67
2022/06/04 01:17:39;;;;;;;;;;;16.70;99.90;;;;;;5085257;28;20234;-66
2022/06/04 01:20:11;;;;;;;;;;;16.70;99.90;;;;;;5084924;28;19987;-67
2022/06/04 01:22:45;;;;;;;;;;;16.70;99.90;;;;;;5085059;28;20144;-67
2022/06/04 01:25:20;;;;;;;;;;;16.60;99.90;;;;;;5084633;28;19987;-67
2022/06/04 01:27:51;;;;;;;;;;;16.60;99.90;;;;;;5085087;28;19927;-66
2022/06/04 01:30:19;;;;;;;;;;;16.60;99.90;;;;;;5084579;28;19974;-67
2022/06/04 01:32:53;;;;;;;;;;;16.50;99.90;;;;;;5084997;28;19927;-67
2022/06/04 01:35:23;;;;;;;;;;;16.40;99.90;;;;;;5084687;28;19928;-66
2022/06/04 01:37:51;;;;;;;;;;;16.40;99.90;;;;;;5084835;28;19928;-66
2022/06/04 01:43:07;;;;;;;;;;;16.30;99.90;;;;;;5084632;28;19950;-66
2022/06/04 01:45:35;;;;;;;;;;;16.30;99.90;;;;;;5064136;28;19956;-66
2022/06/04 01:48:03;;;;;;;;;;;16.30;99.90;;;;;;5064537;28;19959;-66
2022/06/04 01:50:33;;;;;;;;;;;16.30;99.90;;;;;;5063968;28;20023;-66
2022/06/04 01:53:01;;;;;;;;;;;16.30;99.90;;;;;;5063795;28;20406;-67
2022/06/04 01:55:31;;;;;;;;;;;16.30;99.90;;;;;;5064097;28;19932;-67
2022/06/04 01:58:00;;;;;;;;;;;16.30;99.90;;;;;;5064153;28;19927;-67
2022/06/04 02:00:29;;;;;;;;;;;16.30;99.90;;;;;;5064340;28;19952;-66
2022/06/04 02:02:58;;;;;;;;;;;16.30;99.90;;;;;;5064584;28;19928;-67
2022/06/04 02:05:26;;;;;;;;;;;16.30;99.90;;;;;;5064204;28;19959;-67
2022/06/04 02:07:54;;;;;;;;;;;16.40;99.90;;;;;;5067863;28;19955;-66
2022/06/04 02:10:22;;;;;;;;;;;16.40;99.90;;;;;;5084270;28;19920;-67
2022/06/04 02:12:50;;;;;;;;;;;16.40;99.90;;;;;;5083906;28;19927;-67
2022/06/04 02:15:18;;;;;;;;;;;16.40;99.90;;;;;;5083202;28;19952;-67
2022/06/04 02:17:48;;;;;;;;;;;16.40;99.90;;;;;;5083343;28;19955;-66
2022/06/04 02:20:15;;;;;;;;;;;16.40;99.90;;;;;;5083911;28;19948;-67
2022/06/04 02:22:42;;;;;;;;;;;16.40;99.90;;;;;;5083815;28;20139;-67
2022/06/04 02:25:10;;;;;;;;;;;16.50;99.90;;;;;;5083930;28;19920;-66
2022/06/04 02:27:37;;;;;;;;;;;16.40;99.90;;;;;;5083718;28;19951;-67
2022/06/04 02:30:04;;;;;;;;;;;16.40;99.90;;;;;;5083900;28;19947;-68
2022/06/04 02:32:34;;;;;;;;;;;16.40;99.90;;;;;;5083687;28;19920;-66
2022/06/04 02:35:06;;;;;;;;;;;16.40;99.90;;;;;;5083906;28;20155;-67
2022/06/04 02:37:35;;;;;;;;;;;16.40;99.90;;;;;;5083810;28;19920;-67
2022/06/04 02:40:07;;;;;;;;;;;16.40;99.90;;;;;;5083734;28;19952;-66
2022/06/04 02:42:35;;;;;;;;;;;16.30;99.90;;;;;;5083549;28;19920;-66
2022/06/04 02:45:06;;;;;;;;;;;16.30;99.90;;;;;;5083843;28;19948;-67
2022/06/04 02:47:37;;;;;;;;;;;16.20;99.90;;;;;;5083372;28;20203;-66
2022/06/04 02:50:08;;;;;;;;;;;16.10;99.90;;;;;;5083482;28;19963;-66
2022/06/04 02:52:36;;;;;;;;;;;16.00;99.90;;;;;;5083388;28;19921;-66
2022/06/04 02:55:07;;;;;;;;;;;16.00;99.90;;;;;;5083865;28;19955;-66
2022/06/04 02:57:35;;;;;;;;;;;15.90;99.90;;;;;;5083234;28;19962;-66
2022/06/04 03:00:02;;;;;;;;;;;15.90;99.90;;;;;;5091233;22;19940;-95
2022/06/04 03:02:30;;;;;;;;;;;15.90;99.90;;;;;;5081590;28;19943;-96
2022/06/04 03:04:57;;;;;;;;;;;15.80;99.90;;;;;;5083365;28;19917;-95
2022/06/04 03:07:26;;;;;;;;;;;15.80;99.90;;;;;;5082932;28;19936;-95
2022/06/04 03:09:57;;;;;;;;;;;15.80;99.90;;;;;;5062860;28;19944;-96
2022/06/04 03:24:09;;;;;;;;;;;15.80;99.90;;;;;;5085321;28;19920;-67
2022/06/04 03:26:36;;;;;;;;;;;15.80;99.90;;;;;;5086780;28;19948;-66
2022/06/04 03:29:03;;;;;;;;;;;15.80;99.90;;;;;;5086539;28;19952;-67
2022/06/04 03:31:30;;;;;;;;;;;15.80;99.90;;;;;;5086597;28;19974;-67
2022/06/04 03:33:57;;;;;;;;;;;15.80;99.90;;;;;;5086812;28;19951;-68
2022/06/04 03:36:25;;;;;;;;;;;15.80;99.90;;;;;;5086871;28;19951;-66
2022/06/04 03:38:52;;;;;;;;;;;15.80;99.90;;;;;;5086388;28;20262;-66
2022/06/04 03:41:20;;;;;;;;;;;15.90;99.90;;;;;;5086453;28;19952;-66
2022/06/04 03:43:51;;;;;;;;;;;15.80;99.90;;;;;;5086469;28;19978;-67
2022/06/04 03:46:18;;;;;;;;;;;15.80;99.90;;;;;;5085954;28;19921;-66
2022/06/04 03:48:45;;;;;;;;;;;15.80;99.90;;;;;;5086566;28;19947;-66
2022/06/04 03:51:12;;;;;;;;;;;15.80;99.90;;;;;;5086608;28;19959;-66
2022/06/04 03:53:38;;;;;;;;;;;15.80;99.90;;;;;;5086225;28;19920;-67
2022/06/04 03:56:05;;;;;;;;;;;15.80;99.90;;;;;;5085939;28;19920;-67
2022/06/04 03:58:33;;;;;;;;;;;15.80;99.90;;;;;;5085842;28;20262;-66
2022/06/04 04:01:00;;;;;;;;;;;15.80;99.90;;;;;;5086358;28;19952;-66
2022/06/04 04:03:27;;;;;;;;;;;15.70;99.90;;;;;;5086350;28;19952;-66
2022/06/04 04:05:54;;;;;;;;;;;15.70;99.90;;;;;;5085943;28;19951;-66
2022/06/04 04:08:22;;;;;;;;;;;15.70;99.90;;;;;;5085811;28;19959;-66
2022/06/04 04:10:49;;;;;;;;;;;15.70;99.90;;;;;;5066230;28;20039;-66
2022/06/04 04:13:17;;;;;;;;;;;15.70;99.90;;;;;;5065629;28;20219;-67
2022/06/04 04:15:45;;;;;;;;;;;15.70;99.90;;;;;;5065870;28;19921;-66
2022/06/04 04:18:12;;;;;;;;;;;15.70;99.90;;;;;;5070029;28;19921;-66
2022/06/04 04:20:41;;;;;;;;;;;15.70;99.90;;;;;;5085886;28;19920;-67
2022/06/04 04:23:08;;;;;;;;;;;15.70;99.90;;;;;;5096828;28;19924;-66
2022/06/04 04:25:35;;;;;;;;;;;15.60;99.90;;;;;;5105553;28;19983;-66
2022/06/04 04:28:02;;;;;;;;;;;15.70;99.90;;;;;;5105927;28;20188;-66
2022/06/04 04:30:32;;;;;;;;;;;15.70;99.90;;;;;;5105821;28;19966;-66
2022/06/04 04:33:00;;;;;;;;;;;15.70;99.90;;;;;;5105826;28;19988;-66
2022/06/04 04:35:28;;;;;;;;;;;15.70;99.90;;;;;;5105400;28;20261;-67
2022/06/04 04:37:55;;;;;;;;;;;15.60;99.90;;;;;;5105576;28;19959;-66
2022/06/04 04:40:22;;;;;;;;;;;15.70;99.90;;;;;;5105307;28;19951;-66
2022/06/04 04:42:51;;;;;;;;;;;15.70;99.90;;;;;;5105370;28;20264;-66
2022/06/04 04:45:18;;;;;;;;;;;15.70;99.90;;;;;;5097566;28;19952;-66
2022/06/04 04:47:46;;;;;;;;;;;15.70;99.90;;;;;;5094663;28;19962;-66
2022/06/04 04:50:15;;;;;;;;;;;15.80;99.90;;;;;;5096046;28;20162;-66
2022/06/04 04:52:42;;;;;;;;;;;15.80;99.90;;;;;;5097372;28;20239;-67
2022/06/04 04:55:09;;;;;;;;;;;15.70;99.90;;;;;;5095414;28;19952;-66
2022/06/04 04:57:36;;;;;;;;;;;15.70;99.90;;;;;;5091081;28;19932;-67
2022/06/04 05:00:03;;;;;;;;;;;15.70;99.90;;;;;;5085098;28;19956;-67
2022/06/04 05:02:30;;;;;;;;;;;15.70;99.90;;;;;;5084880;28;19975;-67
2022/06/04 05:04:57;;;;;;;;;;;15.70;99.90;;;;;;5094159;28;19967;-66
2022/06/04 05:07:25;;;;;;;;;;;15.80;99.90;;;;;;5093943;28;19928;-66
2022/06/04 05:09:51;;;;;;;;;;;15.90;99.90;;;;;;5093912;28;19963;-68
2022/06/04 05:12:18;;;;;;;;;;;16.00;99.90;;;;;;5095795;28;19920;-67
2022/06/04 05:14:45;;;;;;;;;;;16.10;99.90;;;;;;5094169;28;19987;-67
2022/06/04 05:17:11;;;;;;;;;;;16.20;99.90;;;;;;5096379;28;19947;-67
2022/06/04 05:19:38;;;;;;;;;;;16.30;99.90;;;;;;5104499;28;19979;-67
2022/06/04 05:22:05;;;;;;;;;;;16.40;99.90;;;;;;5104207;28;19983;-67
2022/06/04 05:24:34;;;;;;;;;;;16.50;99.90;;;;;;5104886;28;20176;-67
2022/06/04 05:27:02;;;;;;;;;;;16.50;99.90;;;;;;5105138;28;19935;-67
2022/06/04 05:29:29;;;;;;;;;;;16.60;99.90;;;;;;5105035;28;19920;-67
2022/06/04 05:31:57;;;;;;;;;;;16.70;99.90;;;;;;5105282;28;19920;-67
2022/06/04 05:34:24;;;;;;;;;;;16.80;99.90;;;;;;5104954;28;19920;-67
2022/06/04 05:36:53;;;;;;;;;;;16.90;99.90;;;;;;5104913;28;19928;-66
2022/06/04 05:39:19;;;;;;;;;;;17.10;99.90;;;;;;5104766;28;19927;-66
2022/06/04 05:41:47;;;;;;;;;;;17.20;99.90;;;;;;5104051;28;19955;-67
2022/06/04 05:44:15;;;;;;;;;;;17.30;99.90;;;;;;5104909;28;19920;-67
2022/06/04 05:46:42;;;;;;;;;;;17.40;99.90;;;;;;5104218;28;19920;-67
2022/06/04 05:49:10;;;;;;;;;;;17.50;99.90;;;;;;5103175;28;19947;-65
2022/06/04 05:51:38;;;;;;;;;;;17.60;99.90;;;;;;5091620;28;20204;-65
2022/06/04 05:54:05;;;;;;;;;;;17.70;99.90;;;;;;5102803;28;19928;-65
2022/06/04 05:56:33;;;;;;;;;;;17.80;99.90;;;;;;5103893;28;19983;-65
2022/06/04 05:59:02;;;;;;;;;;;17.90;99.90;;;;;;5103566;28;19951;-65
2022/06/04 06:01:31;;;;;;;;;;;18.00;99.90;;;;;;5103546;28;20208;-65
2022/06/04 06:03:59;;;;;;;;;;;18.10;99.90;;;;;;5104360;28;19927;-65
2022/06/04 06:06:27;;;;;;;;;;;18.30;99.90;;;;;;5103659;28;19983;-65
2022/06/04 06:08:55;;;;;;;;;;;18.40;99.90;;;;;;5103840;28;19941;-65
2022/06/04 06:11:22;;;;;;;;;;;18.50;99.90;;;;;;5103919;28;19924;-65
2022/06/04 06:13:49;;;;;;;;;;;18.50;99.90;;;;;;5103443;28;19959;-65
2022/06/04 06:16:18;;;;;;;;;;;18.60;99.90;;;;;;5103325;28;20222;-65
2022/06/04 06:18:44;;;;;;;;;;;18.60;99.90;;;;;;5103068;28;19962;-65
2022/06/04 06:21:13;;;;;;;;;;;18.70;99.90;;;;;;5103486;28;19928;-64
2022/06/04 06:23:40;;;;;;;;;;;18.70;99.90;;;;;;5103466;28;19974;-65
2022/06/04 06:26:07;;;;;;;;;;;18.80;99.90;;;;;;5103264;28;20307;-65
2022/06/04 06:28:34;;;;;;;;;;;18.70;99.90;;;;;;5103107;28;19920;-65
2022/06/04 06:31:01;;;;;;;;;;;18.70;99.90;;;;;;5103745;28;19959;-64
2022/06/04 06:33:30;;;;;;;;;;;18.80;99.90;;;;;;5103722;28;19983;-65
2022/06/04 06:35:56;;;;;;;;;;;18.80;99.90;;;;;;5102522;28;19920;-65
2022/06/04 06:38:23;;;;;;;;;;;18.90;99.90;;;;;;5101889;28;19920;-65
2022/06/04 06:40:51;;;;;;;;;;;19.10;99.90;;;;;;5103284;28;19920;-65
2022/06/04 06:43:18;;;;;;;;;;;19.10;99.90;;;;;;5103636;28;19920;-65
2022/06/04 06:45:46;;;;;;;;;;;19.20;99.90;;;;;;5103496;28;19943;-65
2022/06/04 06:48:13;;;;;;;;;;;19.30;99.90;;;;;;5103111;28;19965;-66
2022/06/04 06:50:42;;;;;;;;;;;19.40;99.90;;;;;;5103488;28;19920;-65
2022/06/04 06:53:09;;;;;;;;;;;19.50;99.90;;;;;;5103400;28;20114;-65
2022/06/04 06:55:36;;;;;;;;;;;19.60;99.90;;;;;;5102331;28;20178;-64
2022/06/04 06:58:02;;;;;;;;;;;19.60;99.90;;;;;;5102589;28;20210;-65
2022/06/04 07:00:29;;;;;;;;;;;19.60;99.90;;;;;;5102490;28;19920;-65
2022/06/04 07:02:56;;;;;;;;;;;19.70;99.90;;;;;;5103182;28;19924;-65
2022/06/04 07:05:22;;;;;;;;;;;19.70;99.90;;;;;;5102920;28;19967;-65
2022/06/04 07:07:50;;;;;;;;;;;19.80;99.90;;;;;;5102974;28;19955;-65
2022/06/04 07:10:17;;;;;;;;;;;19.80;99.90;;;;;;5103086;28;19997;-65
2022/06/04 07:12:44;;;;;;;;;;;19.90;99.90;;;;;;5103006;28;19996;-65
2022/06/04 07:15:11;;;;;;;;;;;20.00;99.90;;;;;;5102854;28;19920;-64
2022/06/04 07:17:38;;;;;;;;;;;20.20;99.90;;;;;;5102823;28;19924;-65
2022/06/04 07:20:05;;;;;;;;;;;20.30;99.90;;;;;;5102886;28;19920;-63
2022/06/04 07:22:32;;;;;;;;;;;20.50;99.90;;;;;;5103177;28;20250;-62
2022/06/04 07:25:00;;;;;;;;;;;20.50;99.90;;;;;;5103077;28;19971;-62
2022/06/04 07:27:26;;;;;;;;;;;20.70;99.90;;;;;;5102680;28;20244;-65
2022/06/04 07:29:53;;;;;;;;;;;20.80;99.90;;;;;;5102145;28;20325;-66
2022/06/04 07:32:20;;;;;;;;;;;20.90;99.90;;;;;;5103100;28;19958;-67
2022/06/04 07:34:47;;;;;;;;;;;20.90;99.90;;;;;;5103106;28;19920;-66
2022/06/04 07:37:14;;;;;;;;;;;21.10;99.90;;;;;;5101873;28;19924;-66
2022/06/04 07:39:40;;;;;;;;;;;21.20;99.90;;;;;;5102994;28;19920;-66
2022/06/04 07:42:09;;;;;;;;;;;21.20;99.90;;;;;;5102445;28;20011;-65
2022/06/04 07:44:35;;;;;;;;;;;21.20;99.90;;;;;;5102813;28;20278;-66
2022/06/04 07:47:02;;;;;;;;;;;21.20;99.90;;;;;;5102228;28;20314;-66
2022/06/04 07:49:29;;;;;;;;;;;21.10;99.90;;;;;;5106528;28;19920;-67
2022/06/04 07:51:55;;;;;;;;;;;21.20;99.90;;;;;;5106477;28;19920;-66
2022/06/04 07:54:22;;;;;;;;;;;21.10;99.90;;;;;;5106671;28;19962;-66
2022/06/04 07:56:50;;;;;;;;;;;21.10;99.90;;;;;;5106076;28;19987;-66
2022/06/04 07:59:18;;;;;;;;;;;21.00;99.90;;;;;;5106259;28;19920;-66
2022/06/04 08:01:45;;;;;;;;;;;20.90;99.90;;;;;;5106480;28;19920;-66
2022/06/04 08:04:12;;;;;;;;;;;20.80;99.90;;;;;;5106276;28;19927;-66
2022/06/04 08:06:38;;;;;;;;;;;20.80;99.90;;;;;;5105927;28;20254;-66
2022/06/04 08:09:05;;;;;;;;;;;20.80;99.90;;;;;;5106395;28;19955;-66
2022/06/04 08:11:32;;;;;;;;;;;20.70;99.90;;;;;;5105885;28;19974;-66
2022/06/04 08:14:00;;;;;;;;;;;20.60;99.90;;;;;;5099053;28;19920;-66
2022/06/04 08:16:28;;;;;;;;;;;20.60;99.90;;;;;;5094201;28;19924;-67
2022/06/04 08:18:54;;;;;;;;;;;20.50;99.90;;;;;;5097220;28;20183;-66
2022/06/04 08:21:21;;;;;;;;;;;20.50;99.90;;;;;;5094829;28;19920;-67
2022/06/04 08:23:48;;;;;;;;;;;20.40;99.90;;;;;;5095778;28;20275;-66
2022/06/04 08:26:15;;;;;;;;;;;20.40;99.90;;;;;;5096819;28;19985;-66
2022/06/04 08:28:42;;;;;;;;;;;20.30;99.90;;;;;;5094826;28;20180;-66
2022/06/04 08:31:10;;;;;;;;;;;20.20;99.90;;;;;;5096349;28;19966;-66
2022/06/04 08:33:38;;;;;;;;;;;20.10;99.90;;;;;;5093905;28;19929;-66
2022/06/04 08:36:05;;;;;;;;;;;20.00;99.90;;;;;;5096386;28;19952;-66
2022/06/04 08:38:32;;;;;;;;;;;19.90;99.90;;;;;;5098827;28;20227;-67
2022/06/04 08:41:01;;;;;;;;;;;19.90;99.90;;;;;;5101285;28;19920;-65
2022/06/04 08:43:33;;;;;;;;;;;19.90;99.90;;;;;;5100171;28;19983;-67
2022/06/04 08:46:02;;;;;;;;;;;19.80;99.90;;;;;;5100846;28;19924;-67
2022/06/04 08:48:30;;;;;;;;;;;19.70;99.90;;;;;;5103918;28;19956;-67
2022/06/04 08:50:58;;;;;;;;;;;19.80;99.90;;;;;;5087832;28;19967;-67
2022/06/04 08:53:27;;;;;;;;;;;19.80;99.90;;;;;;5098337;28;19996;-66
2022/06/04 08:58:49;;;;;;;;;;;19.80;99.90;;;;;;5099938;28;20308;-67
2022/06/04 09:01:19;;;;;;;;;;;19.90;99.90;;;;;;5100877;28;19920;-66
2022/06/04 09:03:48;;;;;;;;;;;19.90;99.90;;;;;;5102331;28;19956;-66
2022/06/04 09:06:19;;;;;;;;;;;20.00;99.90;;;;;;5091051;28;19920;-66
2022/06/04 09:08:51;;;;;;;;;;;20.00;99.90;;;;;;5082691;28;19959;-66
2022/06/04 09:11:21;;;;;;;;;;;20.00;99.90;;;;;;5085176;28;19959;-66
2022/06/04 09:13:50;;;;;;;;;;;20.00;99.90;;;;;;5088463;28;19956;-66
2022/06/04 09:16:23;;;;;;;;;;;20.00;99.90;;;;;;5100595;28;20154;-66
2022/06/04 09:19:00;;;;;;;;;;;20.00;99.90;;;;;;5095711;28;20030;-66
2022/06/04 09:21:32;;;;;;;;;;;20.10;99.90;;;;;;5094869;28;19920;-66
2022/06/04 09:23:59;;;;;;;;;;;20.20;99.90;;;;;;5093601;28;19947;-66
2022/06/04 09:26:28;;;;;;;;;;;20.30;99.90;;;;;;5096422;28;19948;-67
2022/06/04 09:28:59;;;;;;;;;;;20.40;99.90;;;;;;5093430;28;19921;-66
2022/06/04 09:31:30;;;;;;;;;;;20.50;99.90;;;;;;5093516;28;19927;-67
2022/06/04 09:33:57;;;;;;;;;;;20.50;99.90;;;;;;5095446;28;19951;-66
2022/06/04 09:36:26;;;;;;;;;;;20.60;99.90;;;;;;5098791;28;20208;-67
2022/06/04 09:38:56;;;;;;;;;;;20.70;99.90;;;;;;5099834;28;19957;-66
2022/06/04 09:41:23;;;;;;;;;;;20.80;99.90;;;;;;5096303;28;19965;-66
2022/06/04 09:43:59;;;;;;;;;;;20.90;99.90;;;;;;5093696;28;19920;-66
2022/06/04 09:46:26;;;;;;;;;;;21.00;99.90;;;;;;5096434;28;19927;-66
2022/06/04 09:48:54;;;;;;;;;;;21.20;99.90;;;;;;5092869;28;20254;-64
2022/06/04 09:51:22;;;;;;;;;;;21.30;99.90;;;;;;5089025;28;20154;-64
2022/06/04 09:53:50;;;;;;;;;;;21.50;99.90;;;;;;5084278;28;19921;-65
2022/06/04 09:56:26;;;;;;;;;;;21.70;99.90;;;;;;5093713;28;20121;-65
2022/06/04 09:58:53;;;;;;;;;;;22.00;99.90;;;;;;5103935;28;19959;-65
2022/06/04 10:01:24;;;;;;;;;;;22.10;99.90;;;;;;5104382;28;19987;-64
2022/06/04 10:04:04;;;;;;;;;;;22.20;99.90;;;;;;5103994;28;19958;-64
2022/06/04 10:06:31;;;;;;;;;;;22.30;99.90;;;;;;5104013;28;19924;-64
2022/06/04 10:11:53;;;;;;;;;;;22.30;99.90;;;;;;5092584;28;19936;-64
2022/06/04 10:14:26;;;;;;;;;;;22.30;99.90;;;;;;5101259;28;19920;-65
2022/06/04 10:16:53;;;;;;;;;;;22.30;99.90;;;;;;5093826;28;19939;-65
2022/06/04 10:19:21;;;;;;;;;;;22.30;99.90;;;;;;5087248;28;19966;-65
2022/06/04 10:21:49;;;;;;;;;;;22.60;99.90;;;;;;5084411;28;19921;-64
2022/06/04 10:24:20;;;;;;;;;;;22.80;99.90;;;;;;5104310;28;19952;-64
2022/06/04 10:27:03;;;;;;;;;;;23.10;99.90;;;;;;5103750;28;19955;-64
2022/06/04 10:29:50;;;;;;;;;;;22.90;99.90;;;;;;5099637;28;19920;-64
2022/06/04 10:32:31;;;;;;;;;;;22.90;99.90;;;;;;5078313;28;19964;-64
2022/06/04 10:35:00;;;;;;;;;;;22.90;99.90;;;;;;5083494;28;19920;-64
2022/06/04 10:37:34;;;;;;;;;;;22.80;99.90;;;;;;5083633;28;19980;-64
2022/06/04 10:40:21;;;;;;;;;;;22.70;99.90;;;;;;5088234;28;20301;-64
2022/06/04 10:42:54;;;;;;;;;;;22.70;99.90;;;;;;5101247;28;19927;-64
2022/06/04 10:45:25;;;;;;;;;;;22.60;99.90;;;;;;5098987;28;19956;-65
2022/06/04 10:47:55;;;;;;;;;;;22.60;99.90;;;;;;5083686;28;19987;-64
2022/06/04 10:50:29;;;;;;;;;;;22.70;99.90;;;;;;5083185;28;19983;-64
2022/06/04 10:52:59;;;;;;;;;;;22.70;99.90;;;;;;5083145;28;20216;-64
2022/06/04 10:55:32;;;;;;;;;;;22.90;99.90;;;;;;5083351;28;20097;-64
2022/06/04 10:58:07;;;;;;;;;;;23.00;99.90;;;;;;5083659;28;19952;-64
2022/06/04 11:00:37;;;;;;;;;;;23.30;99.90;;;;;;5083614;28;19920;-64
2022/06/04 11:03:07;;;;;;;;;;;23.40;99.90;;;;;;5083282;28;19920;-64
2022/06/04 11:05:37;;;;;;;;;;;23.60;99.90;;;;;;5083087;28;19927;-64
2022/06/04 11:08:07;;;;;;;;;;;23.70;99.90;;;;;;5082980;28;19927;-65
2022/06/04 11:10:35;;;;;;;;;;;23.70;99.90;;;;;;5083585;28;19974;-65
2022/06/04 11:13:08;;;;;;;;;;;23.70;99.90;;;;;;5083328;28;19956;-65
2022/06/04 11:15:36;;;;;;;;;;;23.70;99.90;;;;;;5082740;28;19921;-65
2022/06/04 11:18:04;;;;;;;;;;;23.60;99.90;;;;;;5083320;28;19983;-65
2022/06/04 11:20:34;;;;;;;;;;;23.50;99.90;;;;;;5083366;28;19963;-64
2022/06/04 11:23:07;;;;;;;;;;;23.40;99.90;;;;;;5087795;28;19920;-65
2022/06/04 11:25:37;;;;;;;;;;;23.30;99.90;;;;;;5093645;28;19943;-65
2022/06/04 11:28:08;;;;;;;;;;;23.40;99.90;;;;;;5104306;28;19983;-65
2022/06/04 11:30:42;;;;;;;;;;;23.40;99.90;;;;;;5107327;28;19983;-66
2022/06/04 11:33:15;;;;;;;;;;;23.20;99.90;;;;;;5086755;28;19960;-64
2022/06/04 11:35:45;;;;;;;;;;;23.20;99.90;;;;;;5106120;28;19991;-65
2022/06/04 11:38:23;;;;;;;;;;;23.50;99.90;;;;;;5105102;28;19920;-64
2022/06/04 11:40:53;;;;;;;;;;;23.60;99.90;;;;;;5104901;28;20215;-64
2022/06/04 11:43:25;;;;;;;;;;;23.60;99.90;;;;;;5102623;28;19959;-64
2022/06/04 11:46:01;;;;;;;;;;;23.40;99.90;;;;;;5106926;28;19956;-64
2022/06/04 11:48:35;;;;;;;;;;;23.20;99.90;;;;;;5093095;28;19920;-64
2022/06/04 11:51:07;;;;;;;;;;;23.10;99.90;;;;;;5106604;28;19927;-65
2022/06/04 11:53:38;;;;;;;;;;;22.90;99.90;;;;;;5106826;28;19987;-64
2022/06/04 11:56:07;;;;;;;;;;;22.90;99.90;;;;;;5106813;28;20258;-64
2022/06/04 11:58:43;;;;;;;;;;;23.00;99.90;;;;;;5105812;28;19959;-65
2022/06/04 12:01:12;;;;;;;;;;;23.00;99.90;;;;;;5105792;28;19962;-64
2022/06/04 12:03:44;;;;;;;;;;;23.00;99.90;;;;;;5106897;28;19959;-65
2022/06/04 12:06:15;;;;;;;;;;;23.00;99.90;;;;;;5099443;28;19948;-65
2022/06/04 12:08:43;;;;;;;;;;;23.10;99.90;;;;;;5104139;28;19920;-65
2022/06/04 12:11:22;;;;;;;;;;;23.10;99.90;;;;;;5086770;28;19920;-64
2022/06/04 12:13:55;;;;;;;;;;;23.10;99.90;;;;;;5105842;28;19963;-66
2022/06/04 12:16:25;;;;;;;;;;;23.10;99.90;;;;;;5106493;28;19926;-63
2022/06/04 12:18:56;;;;;;;;;;;23.00;99.90;;;;;;5106044;28;19920;-65
2022/06/04 12:24:18;;;;;;;;;;;22.90;99.90;;;;;;5105919;28;19953;-64
2022/06/04 12:26:48;;;;;;;;;;;22.90;99.90;;;;;;5105428;28;19962;-64
2022/06/04 12:29:36;;;;;;;;;;;22.90;99.90;;;;;;5106069;28;20235;-64
2022/06/04 12:32:04;;;;;;;;;;;22.80;99.90;;;;;;5106162;28;19955;-66
2022/06/04 12:34:32;;;;;;;;;;;22.80;99.90;;;;;;5104970;28;19927;-63
2022/06/04 12:36:59;;;;;;;;;;;22.80;99.90;;;;;;5105955;28;19920;-63
2022/06/04 12:39:28;;;;;;;;;;;22.80;99.90;;;;;;5104944;28;19954;-64
2022/06/04 12:41:56;;;;;;;;;;;22.70;99.90;;;;;;5106042;28;19920;-63
2022/06/04 12:44:24;;;;;;;;;;;22.70;99.90;;;;;;5105720;28;19927;-63
2022/06/04 12:46:53;;;;;;;;;;;22.80;99.90;;;;;;5105779;28;19958;-64
2022/06/04 12:49:25;;;;;;;;;;;22.90;99.90;;;;;;5104437;28;20252;-63
2022/06/04 12:51:56;;;;;;;;;;;22.90;99.90;;;;;;5104564;28;19931;-63
2022/06/04 12:54:31;;;;;;;;;;;23.00;99.90;;;;;;5105228;28;19920;-64
2022/06/04 12:56:59;;;;;;;;;;;23.00;99.90;;;;;;5105280;28;19955;-63
2022/06/04 12:59:38;;;;;;;;;;;23.00;99.90;;;;;;5091708;28;19955;-63
2022/06/04 13:02:19;;;;;;;;;;;22.90;99.90;;;;;;5088248;28;20275;-63
2022/06/04 13:04:48;;;;;;;;;;;23.00;99.90;;;;;;5104291;28;19920;-63
2022/06/04 13:07:18;;;;;;;;;;;23.00;99.90;;;;;;5103111;28;19920;-63
2022/06/04 13:09:51;;;;;;;;;;;22.90;99.90;;;;;;5085321;28;20173;-63
2022/06/04 13:12:23;;;;;;;;;;;22.90;99.90;;;;;;5096587;28;19995;-64
2022/06/04 13:14:54;;;;;;;;;;;23.00;99.90;;;;;;5089463;28;19952;-64
2022/06/04 13:17:28;;;;;;;;;;;23.20;99.90;;;;;;5089880;28;19920;-64
2022/06/04 13:20:01;;;;;;;;;;;23.30;99.90;;;;;;5098319;28;19920;-63
2022/06/04 13:22:29;;;;;;;;;;;23.60;99.90;;;;;;5089968;28;19933;-63
2022/06/04 13:24:58;;;;;;;;;;;24.00;99.90;;;;;;5099258;28;20246;-63
2022/06/04 13:27:33;;;;;;;;;;;24.00;99.90;;;;;;5085687;28;19984;-65
2022/06/04 13:30:00;;;;;;;;;;;24.10;99.90;;;;;;5105131;28;19983;-65
2022/06/04 13:32:27;;;;;;;;;;;24.40;99.90;;;;;;5103669;28;19920;-64
2022/06/04 13:35:03;;;;;;;;;;;24.70;99.90;;;;;;5104645;28;19958;-65
2022/06/04 13:37:32;;;;;;;;;;;25.10;99.90;;;;;;5104689;28;19920;-65
2022/06/04 13:40:01;;;;;;;;;;;25.20;99.90;;;;;;5104828;28;19955;-65
2022/06/04 13:42:30;;;;;;;;;;;25.20;99.90;;;;;;5104756;28;20207;-63
2022/06/04 13:44:58;;;;;;;;;;;25.30;99.90;;;;;;5104274;28;19920;-65
2022/06/04 13:47:26;;;;;;;;;;;25.20;99.90;;;;;;5104288;28;19959;-69
2022/06/04 13:50:17;;;;;;;;;;;25.40;99.90;;;;;;5104760;28;19927;-67
2022/06/04 13:52:47;;;;;;;;;;;25.80;99.90;;;;;;5104448;28;19927;-67
2022/06/04 13:55:17;;;;;;;;;;;26.00;99.90;;;;;;5104563;28;20081;-65
2022/06/04 13:57:45;;;;;;;;;;;26.20;99.90;;;;;;5100862;28;19963;-64
2022/06/04 14:00:14;;;;;;;;;;;26.50;99.90;;;;;;5084216;28;19952;-65
2022/06/04 14:02:42;;;;;;;;;;;26.60;99.90;;;;;;5086249;28;19962;-65
2022/06/04 14:08:04;;;;;;;;;;;27.10;99.90;;;;;;5086751;28;19938;-66
2022/06/04 14:10:32;;;;;;;;;;;27.10;99.90;;;;;;5104391;28;19920;-65
2022/06/04 14:13:07;;;;;;;;;;;27.30;99.90;;;;;;5103471;28;19942;-65
2022/06/04 14:15:39;;;;;;;;;;;27.70;99.90;;;;;;5104029;28;19920;-65
2022/06/04 14:18:17;;;;;;;;;;;27.40;99.90;;;;;;5104425;28;19994;-65
2022/06/04 14:20:50;;;;;;;;;;;27.50;99.90;;;;;;5095347;28;19951;-65
2022/06/04 14:23:25;;;;;;;;;;;27.70;99.90;;;;;;5095283;28;19920;-65
2022/06/04 14:25:58;;;;;;;;;;;28.00;99.90;;;;;;5094370;28;19925;-65
2022/06/04 14:28:31;;;;;;;;;;;28.20;99.90;;;;;;5083599;28;19927;-66
2022/06/04 14:31:02;;;;;;;;;;;28.50;99.90;;;;;;5083500;28;19928;-65
2022/06/04 14:33:29;;;;;;;;;;;28.50;99.90;;;;;;5083779;28;19961;-64
2022/06/04 14:35:57;;;;;;;;;;;28.20;99.90;;;;;;5083742;28;19951;-65
2022/06/04 14:38:25;;;;;;;;;;;27.80;99.90;;;;;;5083442;28;19920;-66
2022/06/04 14:40:59;;;;;;;;;;;27.70;99.90;;;;;;5100978;28;20235;-67
2022/06/04 14:43:34;;;;;;;;;;;27.80;99.90;;;;;;5103278;28;20052;-65
2022/06/04 14:46:03;;;;;;;;;;;27.80;99.90;;;;;;5103456;28;19928;-67
2022/06/04 14:48:51;;;;;;;;;;;27.90;99.90;;;;;;5103387;28;19983;-67
2022/06/04 14:51:26;;;;;;;;;;;28.00;99.90;;;;;;5103868;28;19962;-64
2022/06/04 14:53:55;;;;;;;;;;;28.20;99.90;;;;;;5103980;28;19967;-63
2022/06/04 14:56:33;;;;;;;;;;;28.10;99.90;;;;;;5103309;28;19978;-64
2022/06/04 14:59:18;;;;;;;;;;;28.00;99.90;;;;;;5102897;28;19920;-64
2022/06/04 15:02:00;;;;;;;;;;;28.10;99.90;;;;;;5103784;28;19924;-64